Time;durP1;ratioP1;P1;durP2;ratioP2;P2;SDS_P1;SDS_P2;PMS_P1;PMS_P2;Temp;Humidity;BMP_temperature;BMP_pressure;BME280_temperature;BME280_humidity;BME280_pressure;Samples;Min_cycle;Max_cycle;Signal;HPM_P1;HPM_P2
2023/07/31 00:01:39;;;;;;;5.80;3.20;;;;;;;16.97;82.09;99912.21;124762;1325;114952;-70
2023/07/31 00:10:03;;;;;;;3.90;2.80;;;;;;;16.98;82.07;99913.21;126363;1298;635918;-67
2023/07/31 00:14:06;;;;;;;4.30;2.60;;;;;;;16.99;82.14;99919.44;128058;1280;126761;-67
2023/07/31 00:18:00;;;;;;;4.90;2.90;;;;;;;16.99;82.22;99918.38;128324;1279;115181;-67
2023/07/31 00:25:58;;;;;;;;;;;;;;;;;;;;;
2023/07/31 00:34:23;;;;;;;4.40;3.20;;;;;;;17.04;82.03;99920.52;126647;1295;635675;-66
2023/07/31 00:38:26;;;;;;;5.70;3.30;;;;;;;17.03;82.07;99920.98;128130;1281;126986;-68
2023/07/31 00:42:28;;;;;;;5.40;2.70;;;;;;;17.02;82.05;99917.45;127532;1285;115243;-69
2023/07/31 00:54:53;;;;;;;6.40;3.50;;;;;;;17.01;81.95;99922.77;126443;1293;635680;-69
2023/07/31 00:58:56;;;;;;;6.20;3.30;;;;;;;16.98;81.92;99924.08;129510;1286;128591;-67
2023/07/31 01:02:48;;;;;;;3.20;2.70;;;;;;;16.97;81.97;99922.38;127863;1283;115196;-68
2023/07/31 01:06:59;;;;;;;5.90;3.10;;;;;;;16.95;81.90;99916.55;123048;1288;5489058;-73
2023/07/31 01:11:10;;;;;;;4.30;2.90;;;;;;;16.94;81.99;99916.42;127400;1286;114961;-68
2023/07/31 01:15:11;;;;;;;3.70;2.70;;;;;;;16.92;81.82;99917.48;126512;1294;115019;-68
2023/07/31 01:19:12;;;;;;;4.60;3.00;;;;;;;16.90;81.79;99919.46;125982;1314;115051;-70
2023/07/31 01:23:14;;;;;;;6.70;3.10;;;;;;;16.88;81.54;99918.04;125065;1309;128994;-67
2023/07/31 01:31:41;;;;;;;4.20;3.10;;;;;;;16.86;81.42;99915.64;126528;1297;636744;-67
2023/07/31 01:35:43;;;;;;;6.80;3.30;;;;;;;16.83;81.29;99921.82;128812;1278;127783;-66
2023/07/31 01:39:46;;;;;;;5.60;3.10;;;;;;;16.82;81.26;99925.67;127819;1284;115378;-70
2023/07/31 01:43:48;;;;;;;4.90;3.00;;;;;;;16.80;81.15;99927.30;123360;1289;5436998;-66
2023/07/31 01:47:50;;;;;;;5.50;2.70;;;;;;;16.78;80.99;99928.40;126246;1297;114960;-68
2023/07/31 01:51:51;;;;;;;5.20;3.00;;;;;;;16.75;80.86;99921.06;126243;1315;114942;-69
2023/07/31 01:59:58;;;;;;;;;;;;;;;;;;;;;
2023/07/31 02:04:04;;;;;;;8.30;2.90;;;;;;;16.70;81.11;99913.70;128846;1275;128060;-73
2023/07/31 02:11:48;;;;;;;7.10;2.80;;;;;;;16.67;80.71;99918.84;123883;1281;5424807;-70
2023/07/31 02:15:50;;;;;;;6.70;3.20;;;;;;;16.67;80.80;99916.64;127501;1289;114948;-66
2023/07/31 02:20:01;;;;;;;5.30;2.60;;;;;;;16.68;80.88;99919.32;126659;1311;114828;-68
2023/07/31 02:24:02;;;;;;;;;;;;;;;;;;;;;
2023/07/31 02:28:10;;;;;;;8.00;3.00;;;;;;;16.65;80.90;99929.10;125982;1295;115246;-66
2023/07/31 02:32:12;;;;;;;5.30;3.10;;;;;;;16.64;81.12;99920.70;125639;1305;115066;-70
2023/07/31 02:36:03;;;;;;;6.90;3.00;;;;;;;16.63;81.08;99922.01;125128;1323;114788;-69
2023/07/31 02:40:05;;;;;;;6.80;3.30;;;;;;;16.61;81.07;99920.01;124427;1329;114949;-71
2023/07/31 02:48:07;;;;;;;;;;;;;;;;;;;;;
2023/07/31 02:52:11;;;;;;;5.60;3.10;;;;;;;16.58;80.98;99908.38;128635;1278;128602;-72
2023/07/31 02:56:13;;;;;;;6.90;2.90;;;;;;;16.54;80.84;99910.25;127091;1290;115278;-70
2023/07/31 03:04:16;;;;;;;8.20;3.20;;;;;;;16.51;81.13;99915.23;121982;1303;114836;-73
2023/07/31 03:08:15;;;;;;;4.70;3.00;;;;;;;16.48;81.06;99919.65;125781;1305;114888;-68
2023/07/31 03:12:15;;;;;;;;;;;;;;;;;;;;;
2023/07/31 03:20:40;;;;;;;7.70;3.00;;;;;;;16.33;81.05;99924.05;126285;1295;635903;-67
2023/07/31 03:24:25;;;;;;;10.60;3.20;;;;;;;16.24;80.91;99925.50;127083;1285;128050;-70
2023/07/31 03:28:27;;;;;;;8.90;3.70;;;;;;;16.17;80.97;99924.38;128345;1274;115259;-70
2023/07/31 03:32:32;;;;;;;5.30;3.30;;;;;;;16.10;80.93;99926.72;124177;1288;5488352;-68
2023/07/31 03:36:34;;;;;;;5.90;3.90;;;;;;;16.05;81.03;99930.03;126197;1297;114936;-67
2023/07/31 03:40:27;;;;;;;;;;;;;;;;;;;;;
2023/07/31 03:48:40;;;;;;;6.60;3.60;;;;;;;15.98;81.01;99931.61;126594;1306;635427;-67
2023/07/31 03:56:44;;;;;;;;;;;;;;;;;;;;;
2023/07/31 04:00:48;;;;;;;13.50;3.40;;;;;;;15.90;81.25;99929.95;122992;1292;5427395;-70
2023/07/31 04:04:49;;;;;;;9.30;3.40;;;;;;;15.88;81.25;99927.60;125238;1302;115202;-67
2023/07/31 04:13:17;;;;;;;3.40;2.70;;;;;;;15.97;81.39;99924.89;126507;1293;636951;-69
2023/07/31 04:17:17;;;;;;;;;;;;;;;;;;;;;
2023/07/31 04:25:24;;;;;;;5.70;2.90;;;;;;;16.08;81.70;99922.00;122365;1296;5431315;-71
2023/07/31 04:29:24;;;;;;;;;;;;;;;;;;;;;
2023/07/31 04:41:42;;;;;;;9.20;3.50;;;;;;;16.42;81.52;99919.36;126479;1293;635941;-71
2023/07/31 04:45:44;;;;;;;6.60;3.00;;;;;;;16.59;81.69;99922.33;129205;1276;129868;-69
2023/07/31 04:49:47;;;;;;;9.30;3.30;;;;;;;16.82;81.82;99923.77;128248;1298;115345;-69
2023/07/31 04:57:55;;;;;;;8.20;2.70;;;;;;;17.47;81.16;99926.54;126132;1295;114977;-70
2023/07/31 05:01:57;;;;;;;6.00;3.10;;;;;;;17.75;80.10;99919.59;125631;1305;115013;-71
2023/07/31 05:10:25;;;;;;;8.40;3.50;;;;;;;18.14;79.07;99922.10;125941;1310;637650;-72
2023/07/31 05:14:28;;;;;;;18.10;3.20;;;;;;;18.31;78.45;99922.73;128577;1275;128027;-69
2023/07/31 05:18:30;;;;;;;7.70;2.90;;;;;;;18.44;78.13;99924.21;128041;1282;115447;-72
2023/07/31 05:22:32;;;;;;;9.90;2.90;;;;;;;18.58;77.83;99928.00;123486;1284;5432227;-70
2023/07/31 05:26:37;;;;;;;6.20;3.10;;;;;;;18.76;77.64;99921.73;126885;1292;114785;-66
2023/07/31 05:30:31;;;;;;;;;;;;;;;;;;;;;
2023/07/31 05:38:54;;;;;;;9.30;2.80;;;;;;;19.24;76.12;99924.08;126705;1295;636308;-69
2023/07/31 05:42:49;;;;;;;;;;;;;;;;;;;;;
2023/07/31 05:46:50;;;;;;;;;;;;;;;;;;;;;
2023/07/31 05:50:56;;;;;;;8.70;2.80;;;;;;;19.69;75.05;99920.48;123756;1283;5467195;-71
2023/07/31 05:54:57;;;;;;;6.90;2.80;;;;;;;19.83;75.16;99918.09;126634;1311;115670;-67
2023/07/31 05:58:51;;;;;;;6.80;3.40;;;;;;;19.99;74.38;99922.34;126163;1317;114947;-70
2023/07/31 06:07:19;;;;;;;5.80;2.50;;;;;;;20.41;73.44;99917.89;126502;1295;636554;-68
2023/07/31 06:11:24;;;;;;;10.20;2.90;;;;;;;20.57;72.89;99920.10;127995;1284;128713;-67
2023/07/31 06:15:27;;;;;;;7.40;3.30;;;;;;;20.74;72.25;99916.81;126923;1287;114942;-69
2023/07/31 06:19:28;;;;;;;5.00;2.40;;;;;;;20.87;72.06;99914.64;122375;1293;5425076;-69
2023/07/31 06:23:22;;;;;;;7.50;2.40;;;;;;;20.97;71.77;99915.06;125208;1307;114906;-67
2023/07/31 06:27:24;;;;;;;7.90;2.50;;;;;;;21.09;71.36;99910.31;124229;1331;114989;-70
2023/07/31 06:39:53;;;;;;;6.40;2.00;;;;;;;21.34;69.82;99908.92;128192;1277;128755;-68
2023/07/31 06:43:46;;;;;;;9.10;2.10;;;;;;;21.38;69.11;99905.42;127494;1286;115383;-71
2023/07/31 06:47:53;;;;;;;4.80;2.70;;;;;;;21.49;69.52;99910.27;122627;1298;5494467;-68
2023/07/31 06:51:55;;;;;;;7.10;1.90;;;;;;;21.69;69.20;99913.74;125818;1301;115291;-71
2023/07/31 06:55:51;;;;;;;7.40;2.30;;;;;;;21.96;68.26;99914.05;125223;1303;114884;-70
2023/07/31 07:07:35;;;;;;;;;;;;;;;;;;;;;
2023/07/31 07:15:08;;;;;;;10.30;2.10;;;;;;;22.39;66.16;99906.13;126111;1297;639950;-69
2023/07/31 07:19:12;;;;;;;5.00;2.40;;;;;;;22.43;65.59;99904.05;128932;1268;128083;-69
2023/07/31 07:23:13;;;;;;;5.40;1.70;;;;;;;22.46;65.28;99895.98;127794;1302;115344;-71
2023/07/31 07:27:07;;;;;;;5.50;2.00;;;;;;;22.60;65.51;99897.20;127583;1282;114969;-71
2023/07/31 07:31:10;;;;;;;5.80;2.30;;;;;;;22.74;64.65;99892.46;123509;1284;114778;-69
2023/07/31 07:35:00;;;;;;;6.40;2.40;;;;;;;22.84;64.36;99890.86;128372;1279;114662;-67
2023/07/31 07:39:03;;;;;;;5.10;2.00;;;;;;;23.00;63.75;99888.03;127821;1287;115266;-66
2023/07/31 07:43:05;;;;;;;6.20;2.40;;;;;;;23.27;63.68;99884.36;126632;1288;128030;-72
2023/07/31 07:47:28;;;;;;;3.70;2.00;;;;;;;23.66;63.39;99879.39;125638;1322;114841;-70
2023/07/31 07:54:55;;;;;;;;;;;;;;;;;;;;;
2023/07/31 07:58:17;;;;;;;4.40;1.70;;;;;;;24.84;60.95;99879.68;129067;1271;127792;-72
2023/07/31 08:06:12;;;;;;;;;;;;;;;;;;;;;
2023/07/31 08:09:25;;;;;;;4.70;2.00;;;;;;;26.24;57.90;99871.42;125317;1270;5434262;-72
2023/07/31 08:12:35;;;;;;;4.40;1.70;;;;;;;26.61;56.91;99870.66;129343;1270;114895;-71
2023/07/31 08:16:02;;;;;;;4.10;1.80;;;;;;;26.73;56.46;99869.28;129181;1274;114931;-72
2023/07/31 08:19:24;;;;;;;;;;;;;;;;;;;;;
2023/07/31 08:23:00;;;;;;;5.10;1.80;;;;;;;26.84;54.72;99866.45;129191;1280;114815;-70
2023/07/31 08:26:23;;;;;;;5.00;1.60;;;;;;;26.99;54.16;99864.63;128335;1273;116482;-70
2023/07/31 08:30:04;;;;;;;;;;;;;;;;;;;;;
2023/07/31 08:34:08;;;;;;;4.90;1.80;;;;;;;27.31;53.37;99872.21;128460;1275;114901;-68
2023/07/31 08:38:15;;;;;;;5.70;1.50;;;;;;;27.41;52.96;99871.59;127409;1289;120035;-71
2023/07/31 08:41:29;;;;;;;;;;;;;;;;;;;;;
2023/07/31 08:45:24;;;;;;;3.90;1.70;;;;;;;27.62;52.13;99870.10;127332;1283;114919;-71
2023/07/31 08:49:01;;;;;;;7.40;1.60;;;;;;;27.74;52.37;99869.82;127817;1282;115211;-70
2023/07/31 08:53:02;;;;;;;4.90;1.90;;;;;;;27.83;51.67;99867.35;127939;1282;114942;-71
2023/07/31 08:56:21;;;;;;;3.90;1.90;;;;;;;27.80;50.98;99861.08;127853;1301;120241;-70
2023/07/31 09:00:23;;;;;;;;;;;;;;;;;;;;;
2023/07/31 09:04:08;;;;;;;2.80;1.60;;;;;;;27.32;51.01;99860.41;128128;1282;114842;-71
2023/07/31 09:08:02;;;;;;;2.40;1.70;;;;;;;27.05;51.02;99860.86;128436;1276;115340;-71
2023/07/31 09:12:02;;;;;;;6.20;2.00;;;;;;;26.84;52.02;99868.47;128010;1283;114936;-72
2023/07/31 09:15:37;;;;;;;5.70;2.00;;;;;;;26.59;52.04;99867.98;129050;1286;119020;-72
2023/07/31 09:19:41;;;;;;;;;;;;;;;;;;;;;
2023/07/31 09:23:12;;;;;;;8.00;2.20;;;;;;;25.96;51.92;99862.22;129761;1273;114873;-72
2023/07/31 09:27:35;;;;;;;5.80;3.10;;;;;;;25.77;52.11;99858.91;129645;1268;114766;-72
2023/07/31 09:31:27;;;;;;;;;;;;;;;;;;;;;
2023/07/31 09:34:59;;;;;;;5.80;2.30;;;;;;;25.56;52.06;99876.20;129306;1263;127711;-71
2023/07/31 09:39:03;;;;;;;;;;;;;;;;;;;;;
2023/07/31 09:42:58;;;;;;;3.80;2.40;;;;;;;25.05;51.09;99886.16;129159;1269;114942;-73
2023/07/31 09:46:45;;;;;;;;;;;;;;;;;;;;;
2023/07/31 09:50:31;;;;;;;4.70;2.40;;;;;;;24.51;51.46;99886.42;128518;1284;114852;-69
2023/07/31 09:54:34;;;;;;;3.50;2.60;;;;;;;24.36;51.52;99889.39;128884;1274;129392;-70
2023/07/31 09:58:24;;;;;;;4.10;2.30;;;;;;;24.12;51.35;99891.02;128984;1274;115227;-70
2023/07/31 10:02:19;;;;;;;;;;;;;;;;;;;;;
2023/07/31 10:06:23;;;;;;;3.90;2.40;;;;;;;23.77;52.31;99879.95;128111;1291;114860;-68
2023/07/31 10:10:27;;;;;;;4.10;2.50;;;;;;;23.83;52.43;99869.30;127846;1283;114960;-72
2023/07/31 10:13:57;;;;;;;6.00;2.50;;;;;;;23.90;52.23;99866.71;126528;1313;130457;-67
2023/07/31 10:17:03;;;;;;;4.50;2.00;;;;;;;23.92;52.10;99861.67;126348;1295;116577;-72
2023/07/31 10:20:28;;;;;;;3.30;2.00;;;;;;;23.88;52.23;99860.65;126851;1287;114745;-70
2023/07/31 10:23:50;;;;;;;3.10;2.30;;;;;;;23.86;52.69;99861.23;127447;1305;114837;-69
2023/07/31 10:27:45;;;;;;;4.40;1.90;;;;;;;23.84;53.08;99860.80;127128;1304;114897;-73
2023/07/31 10:31:47;;;;;;;3.70;1.70;;;;;;;23.77;53.09;99860.29;127248;1284;130385;-72
2023/07/31 10:35:48;;;;;;;4.70;1.80;;;;;;;23.83;53.34;99867.23;127220;1289;115957;-68
2023/07/31 10:39:58;;;;;;;4.30;1.70;;;;;;;23.86;53.15;99867.67;126859;1292;114832;-70
2023/07/31 10:43:59;;;;;;;4.10;1.90;;;;;;;23.93;52.93;99863.25;126480;1295;116504;-72
2023/07/31 10:48:01;;;;;;;6.10;2.20;;;;;;;24.17;53.07;99859.61;126210;1316;114987;-71
2023/07/31 10:52:02;;;;;;;8.90;2.20;;;;;;;24.42;52.62;99856.07;126287;1295;129748;-70
2023/07/31 11:00:23;;;;;;;2.00;1.50;;;;;;;24.78;51.57;99852.88;125868;1301;114957;-71
2023/07/31 11:04:19;;;;;;;;;;;;;;;;;;;;;
2023/07/31 11:08:12;;;;;;;3.10;1.70;;;;;;;24.66;51.41;99840.68;125752;1312;114879;-72
2023/07/31 11:16:32;;;;;;;6.90;1.90;;;;;;;24.60;51.67;99839.89;126670;1293;635874;-70
2023/07/31 11:20:35;;;;;;;4.10;1.70;;;;;;;24.56;51.59;99834.72;128919;1273;129262;-70
2023/07/31 11:24:37;;;;;;;3.30;1.90;;;;;;;24.53;51.38;99829.90;127259;1289;114886;-72
2023/07/31 11:36:43;;;;;;;3.90;2.00;;;;;;;24.74;51.33;99819.50;125666;1314;114814;-72
2023/07/31 11:40:42;;;;;;;;;;;;;;;;;;;;;
2023/07/31 11:49:03;;;;;;;7.40;2.10;;;;;;;25.45;51.30;99793.04;126396;1296;635917;-72
2023/07/31 11:52:44;;;;;;;3.40;2.20;;;;;;;25.64;50.82;99785.03;129379;1271;118843;-72
2023/07/31 11:56:49;;;;;;;2.70;2.20;;;;;;;25.82;50.32;99780.91;129369;1279;114782;-71
2023/07/31 12:00:35;;;;;;;;;;;;;;;;;;;;;
2023/07/31 12:04:39;;;;;;;6.00;2.60;;;;;;;26.09;50.01;99776.09;129010;1271;114742;-71
2023/07/31 12:08:35;;;;;;;2.80;1.80;;;;;;;26.29;49.85;99772.35;129073;1287;115283;-71
2023/07/31 12:12:45;;;;;;;4.10;2.20;;;;;;;26.44;49.11;99761.92;128299;1274;118899;-66
2023/07/31 12:16:36;;;;;;;;;;;;;;;;;;;;;
2023/07/31 12:24:02;;;;;;;5.60;2.30;;;;;;;26.95;48.25;99745.82;126772;1292;114818;-72
2023/07/31 12:32:05;;;;;;;5.20;2.50;;;;;;;26.88;47.99;99739.41;126370;1295;121184;-70
2023/07/31 12:36:08;;;;;;;4.10;2.40;;;;;;;26.80;47.25;99728.33;125666;1301;114847;-72
2023/07/31 12:40:09;;;;;;;5.30;2.10;;;;;;;26.76;47.34;99722.60;125630;1302;114847;-71
2023/07/31 12:43:59;;;;;;;;;;;;;;;;;;;;;
2023/07/31 12:52:17;;;;;;;3.90;2.10;;;;;;;26.93;47.06;99707.73;126640;1294;635863;-70
2023/07/31 12:56:00;;;;;;;;;;;;;;;26.96;47.07;99707.85;129600;1269;119418;-73
2023/07/31 13:03:58;;;;;;;5.20;2.20;;;;;;;27.05;46.62;99693.41;129508;1269;114908;-73
2023/07/31 13:07:41;;;;;;;;;;;;;;;;;;;;;
2023/07/31 13:11:35;;;;;;;2.70;2.10;;;;;;;26.87;46.65;99682.56;129117;1269;114846;-72
2023/07/31 13:15:43;;;;;;;3.30;2.30;;;;;;;26.82;46.40;99680.95;128210;1280;114917;-72
2023/07/31 13:19:47;;;;;;;4.40;2.60;;;;;;;26.67;46.53;99680.45;127750;1286;127848;-70
2023/07/31 13:23:47;;;;;;;3.00;2.40;;;;;;;26.59;46.67;99676.58;127599;1284;114810;-70
2023/07/31 13:27:49;;;;;;;6.40;2.30;;;;;;;26.49;46.78;99675.94;126823;1292;114938;-73
2023/07/31 13:31:50;;;;;;;4.90;2.20;;;;;;;26.53;46.97;99661.70;125617;1302;115876;-71
2023/07/31 13:40:04;;;;;;;4.70;2.90;;;;;;;26.53;46.66;99653.52;126673;1294;636478;-71
2023/07/31 13:44:16;;;;;;;;;;;;;;;;;;;;;
2023/07/31 13:47:52;;;;;;;6.60;2.40;;;;;;;26.25;46.22;99652.74;128051;1282;114879;-72
2023/07/31 13:51:54;;;;;;;3.10;2.60;;;;;;;26.08;46.42;99649.54;128123;1284;114889;-69
2023/07/31 13:55:51;;;;;;;;;;;;;;;;;;;;;
2023/07/31 13:59:52;;;;;;;4.80;3.00;;;;;;;25.96;46.93;99652.95;125941;1301;114887;-71
2023/07/31 14:03:54;;;;;;;6.40;3.00;;;;;;;25.98;46.98;99648.31;126271;1315;114968;-73
2023/07/31 14:07:47;;;;;;;4.90;2.60;;;;;;;26.04;47.31;99643.13;125641;1304;121707;-71
2023/07/31 14:11:41;;;;;;;4.30;3.00;;;;;;;26.11;47.09;99648.39;125379;1299;114980;-70
2023/07/31 14:15:43;;;;;;;9.10;2.40;;;;;;;26.11;47.02;99650.55;125571;1307;115244;-70
2023/07/31 14:19:34;;;;;;;3.00;2.70;;;;;;;26.08;47.02;99647.63;125391;1308;114879;-71
2023/07/31 14:23:08;;;;;;;;;;;;;;;;;;;;;
2023/07/31 14:31:13;;;;;;;4.70;2.90;;;;;;;26.29;47.33;99646.38;125600;1304;114948;-70
2023/07/31 14:35:14;;;;;;;5.40;2.90;;;;;;;26.41;47.17;99639.12;126493;1298;114895;-71
2023/07/31 14:39:08;;;;;;;7.10;3.20;;;;;;;26.47;47.03;99644.17;127206;1289;114926;-69
2023/07/31 14:43:02;;;;;;;6.10;2.80;;;;;;;26.46;46.80;99641.96;127790;1289;114853;-68
2023/07/31 14:47:04;;;;;;;3.80;3.00;;;;;;;26.42;46.95;99636.20;127606;1303;118978;-70
2023/07/31 14:59:15;;;;;;;4.70;2.70;;;;;;;26.19;46.79;99629.88;126669;1304;114891;-69
2023/07/31 15:03:16;;;;;;;3.90;2.10;;;;;;;26.12;46.93;99626.41;126657;1294;114927;-69
2023/07/31 15:11:19;;;;;;;3.40;2.40;;;;;;;26.04;46.91;99620.65;125661;1299;116529;-70
2023/07/31 15:19:36;;;;;;;2.50;1.80;;;;;;;26.00;46.90;99604.67;126455;1298;636154;-68
2023/07/31 15:23:38;;;;;;;4.40;2.20;;;;;;;26.04;46.90;99613.55;128122;1283;119423;-70
2023/07/31 15:27:41;;;;;;;4.50;2.40;;;;;;;26.07;46.72;99613.46;127838;1284;114888;-69
2023/07/31 15:31:43;;;;;;;2.80;2.00;;;;;;;26.07;46.94;99612.81;123834;1287;5420150;-68
2023/07/31 15:35:45;;;;;;;2.90;2.30;;;;;;;25.99;47.04;99609.61;126418;1294;114907;-68
2023/07/31 15:39:46;;;;;;;4.00;2.60;;;;;;;25.89;47.02;99601.70;126315;1298;114868;-69
2023/07/31 15:43:48;;;;;;;4.50;2.30;;;;;;;25.80;47.16;99596.94;125679;1303;114995;-69
2023/07/31 15:51:50;;;;;;;6.30;2.70;;;;;;;25.74;47.32;99588.38;124985;1310;114886;-69
2023/07/31 16:00:18;;;;;;;2.90;2.20;;;;;;;25.66;47.11;99585.36;125868;1299;636420;-70
2023/07/31 16:04:13;;;;;;;4.20;2.40;;;;;;;25.61;47.01;99579.13;127991;1283;120481;-68
2023/07/31 16:12:11;;;;;;;3.20;2.40;;;;;;;25.50;47.11;99574.17;122451;1299;5474339;-70
2023/07/31 16:16:13;;;;;;;4.60;2.40;;;;;;;25.40;46.93;99572.09;125259;1319;114958;-68
2023/07/31 16:24:26;;;;;;;3.80;2.50;;;;;;;25.15;46.37;99573.65;126736;1292;635422;-69
2023/07/31 16:28:27;;;;;;;;;;;;;;;;;;;;;
2023/07/31 16:32:31;;;;;;;3.80;2.60;;;;;;;24.84;47.01;99571.35;127345;1305;116250;-69
2023/07/31 16:53:11;;;;;;;5.40;3.30;;;;;;;24.44;47.85;99563.74;127180;1290;115022;-69
2023/07/31 17:01:15;;;;;;;4.00;2.90;;;;;;;24.17;48.45;99564.58;126026;1301;114914;-69
2023/07/31 17:09:41;;;;;;;3.90;2.40;;;;;;;23.90;49.26;99557.16;125808;1299;636061;-68
2023/07/31 17:13:44;;;;;;;4.20;2.60;;;;;;;23.76;49.72;99559.70;127136;1288;127822;-66
2023/07/31 17:21:50;;;;;;;3.70;2.60;;;;;;;23.49;49.90;99557.64;122967;1292;5447816;-67
2023/07/31 17:25:51;;;;;;;4.40;2.20;;;;;;;23.38;50.13;99559.46;126052;1307;114997;-68
2023/07/31 17:29:35;;;;;;;4.90;2.90;;;;;;;23.28;50.24;99558.88;125990;1309;114973;-67
2023/07/31 17:37:39;;;;;;;6.10;2.50;;;;;;;23.08;50.15;99551.44;125770;1313;129855;-71
2023/07/31 17:45:47;;;;;;;7.90;2.30;;;;;;;22.88;50.73;99544.63;126539;1296;635870;-67
2023/07/31 17:49:38;;;;;;;6.10;2.10;;;;;;;22.78;51.08;99549.61;129220;1272;128235;-73
2023/07/31 17:53:20;;;;;;;4.90;3.20;;;;;;;22.70;51.36;99550.79;128387;1280;114928;-67
2023/07/31 17:57:24;;;;;;;5.20;2.30;;;;;;;22.63;51.52;99544.52;128634;1288;114796;-66
2023/07/31 18:01:31;;;;;;;5.60;2.50;;;;;;;22.53;51.54;99543.83;124084;1286;114948;-71
2023/07/31 18:05:33;;;;;;;7.40;2.00;;;;;;;22.44;51.77;99558.29;127000;1295;114988;-71
2023/07/31 18:09:34;;;;;;;3.90;2.10;;;;;;;22.38;52.07;99560.90;126379;1307;114888;-69
2023/07/31 18:13:35;;;;;;;3.50;2.10;;;;;;;22.31;52.04;99561.10;125719;1319;129928;-72
2023/07/31 18:17:26;;;;;;;;;;;;;;;;;;;;;
2023/07/31 18:25:54;;;;;;;4.70;2.80;;;;;;;22.16;52.63;99564.38;126316;1295;636490;-69
2023/07/31 18:29:57;;;;;;;3.90;2.40;;;;;;;22.10;52.80;99566.34;128244;1278;129757;-67
2023/07/31 18:33:49;;;;;;;;;;;;;;;;;;;;;
2023/07/31 18:37:45;;;;;;;;;;;;;;;;;;;;;
2023/07/31 18:41:47;;;;;;;12.10;3.00;;;;;;;21.97;53.14;99561.94;125678;1321;115239;-68
2023/07/31 18:45:49;;;;;;;3.90;2.90;;;;;;;21.92;53.20;99552.16;125219;1307;114942;-67
2023/07/31 18:54:12;;;;;;;5.00;2.70;;;;;;;21.85;53.66;99532.69;126050;1298;636200;-68
2023/07/31 18:58:15;;;;;;;10.00;3.30;;;;;;;21.77;53.69;99532.05;127769;1286;127165;-68
2023/07/31 19:02:16;;;;;;;;;;;;;;;;;;;;;
2023/07/31 19:06:20;;;;;;;5.40;3.00;;;;;;;21.69;54.28;99535.90;121792;1301;5423381;-67
2023/07/31 19:10:30;;;;;;;5.20;3.20;;;;;;;21.62;54.50;99534.77;125264;1305;114896;-68
2023/07/31 19:22:56;;;;;;;4.00;3.10;;;;;;;21.45;55.16;99530.08;126423;1292;636013;-71
2023/07/31 19:26:59;;;;;;;8.30;3.70;;;;;;;21.35;55.52;99530.98;128217;1283;128282;-72
2023/07/31 19:31:01;;;;;;;8.20;3.30;;;;;;;21.22;55.72;99520.55;128143;1277;115100;-69
2023/07/31 19:35:04;;;;;;;6.40;3.20;;;;;;;21.10;56.03;99514.30;123254;1286;5435456;-72
2023/07/31 19:47:43;;;;;;;7.60;3.80;;;;;;;20.92;56.80;99506.77;125972;1297;638699;-67
2023/07/31 19:51:46;;;;;;;5.80;3.10;;;;;;;20.87;57.07;99505.38;128161;1282;128846;-71
2023/07/31 19:59:57;;;;;;;7.20;3.00;;;;;;;20.80;57.53;99497.77;122885;1293;5417961;-75
2023/07/31 20:03:58;;;;;;;6.90;3.00;;;;;;;20.76;57.78;99492.10;125819;1301;115047;-66
2023/07/31 20:07:59;;;;;;;6.30;3.30;;;;;;;20.74;57.78;99485.84;125097;1310;114903;-66
2023/07/31 20:24:29;;;;;;;9.00;2.90;;;;;;;20.62;58.59;99472.53;129653;1281;127553;-70
2023/07/31 20:32:34;;;;;;;7.30;3.20;;;;;;;20.56;59.03;99465.25;124745;1288;5429602;-68
2023/07/31 20:36:38;;;;;;;6.30;3.20;;;;;;;20.53;59.10;99464.11;127521;1286;114899;-70
2023/07/31 20:40:40;;;;;;;6.90;3.00;;;;;;;20.48;59.19;99458.55;126740;1303;114939;-70
2023/07/31 20:44:41;;;;;;;5.10;2.70;;;;;;;20.45;59.49;99452.52;125844;1301;114894;-69
2023/07/31 20:56:59;;;;;;;;;;;;;;;;;;;;;
2023/07/31 21:01:03;;;;;;;5.90;3.40;;;;;;;20.35;59.94;99426.17;130558;1277;115144;-65
2023/07/31 21:05:04;;;;;;;7.70;3.60;;;;;;;20.32;60.01;99423.36;123076;1289;5442429;-69
2023/07/31 21:09:06;;;;;;;6.20;3.50;;;;;;;20.31;60.14;99421.86;126027;1309;114943;-69
2023/07/31 21:17:01;;;;;;;5.10;3.40;;;;;;;20.27;60.50;99414.61;126127;1300;115108;-69
2023/07/31 21:29:21;;;;;;;8.60;3.60;;;;;;;20.23;60.65;99412.91;127441;1291;128645;-68
2023/07/31 21:33:07;;;;;;;7.40;3.40;;;;;;;20.20;60.63;99405.61;126259;1300;114914;-69
2023/07/31 21:37:08;;;;;;;5.60;3.40;;;;;;;20.19;60.83;99412.06;124944;1298;5486030;-68
2023/07/31 21:41:08;;;;;;;6.10;3.30;;;;;;;20.17;60.93;99405.16;125669;1303;114907;-69
2023/07/31 21:44:52;;;;;;;5.50;3.10;;;;;;;20.15;60.93;99403.20;124993;1310;129873;-69
2023/07/31 21:48:43;;;;;;;7.40;3.80;;;;;;;20.14;61.06;99406.08;124752;1323;116416;-67
2023/07/31 21:52:45;;;;;;;5.70;3.00;;;;;;;20.11;61.10;99402.36;124188;1313;114954;-69
2023/07/31 22:01:12;;;;;;;6.60;3.60;;;;;;;20.11;61.27;99394.59;126199;1296;636148;-69
2023/07/31 22:05:14;;;;;;;6.10;3.20;;;;;;;20.08;61.42;99392.25;129277;1270;129144;-69
2023/07/31 22:13:10;;;;;;;;;;;;;;;;;;;;;
2023/07/31 22:17:14;;;;;;;4.20;2.90;;;;;;;20.00;61.42;99388.80;128049;1279;114911;-69
2023/07/31 22:25:14;;;;;;;7.20;3.60;;;;;;;19.95;61.69;99381.42;126697;1311;114965;-67
2023/07/31 22:29:15;;;;;;;5.90;3.30;;;;;;;19.92;61.82;99375.50;126075;1305;130439;-67
2023/07/31 22:33:17;;;;;;;8.10;4.00;;;;;;;19.89;61.81;99368.77;125587;1304;115263;-68
2023/07/31 22:37:18;;;;;;;4.20;2.60;;;;;;;19.85;61.76;99365.14;125232;1318;114925;-66
2023/07/31 22:45:45;;;;;;;5.40;3.30;;;;;;;19.82;62.06;99347.23;126022;1293;637368;-68
2023/07/31 22:49:48;;;;;;;6.40;3.20;;;;;;;19.78;61.99;99342.34;129229;1271;128962;-67
2023/07/31 22:53:49;;;;;;;5.50;3.00;;;;;;;19.76;62.13;99335.51;128517;1277;115247;-68
2023/07/31 22:57:51;;;;;;;4.90;3.10;;;;;;;19.75;62.25;99332.98;124095;1280;5482019;-68
2023/07/31 23:02:03;;;;;;;6.10;2.90;;;;;;;19.75;62.23;99331.96;127531;1288;114953;-67
2023/07/31 23:06:04;;;;;;;4.50;2.80;;;;;;;19.74;62.13;99332.77;126939;1294;114890;-69
2023/07/31 23:09:58;;;;;;;5.50;3.20;;;;;;;19.73;62.37;99325.33;126184;1296;114824;-67
2023/07/31 23:13:52;;;;;;;6.60;2.90;;;;;;;19.71;62.26;99325.59;126090;1306;129662;-66
2023/07/31 23:17:53;;;;;;;5.90;2.80;;;;;;;19.71;62.39;99322.95;125546;1305;116452;-67
2023/07/31 23:26:17;;;;;;;8.00;3.60;;;;;;;19.71;62.61;99320.60;126622;1295;636374;-66
2023/07/31 23:30:20;;;;;;;7.90;3.40;;;;;;;19.68;62.67;99316.74;128737;1278;128746;-67
2023/07/31 23:34:23;;;;;;;6.20;3.10;;;;;;;19.67;62.81;99308.52;127708;1286;115269;-65
2023/07/31 23:38:23;;;;;;;;;;;;;;;;;;;;;
2023/07/31 23:42:28;;;;;;;5.30;3.40;;;;;;;19.63;62.84;99293.33;126273;1296;115016;-65
2023/07/31 23:46:28;;;;;;;8.00;3.40;;;;;;;19.61;62.88;99283.38;125192;1310;114854;-69
2023/07/31 23:50:22;;;;;;;;;;;;;;;;;;;;;
2023/07/31 23:58:38;;;;;;;;;;;;;;;;;;;;;
